createdAt,value
2023-05-16T00:00:35.363Z,12.66
2023-05-16T00:03:05.892Z,12.61
2023-05-16T00:05:33.328Z,12.70
2023-05-16T00:08:00.658Z,12.61
2023-05-16T00:10:28.503Z,12.54
2023-05-16T00:12:56.557Z,12.51
2023-05-16T00:15:25.220Z,12.52
2023-05-16T00:17:52.830Z,12.59
2023-05-16T00:20:23.688Z,12.47
2023-05-16T00:22:51.445Z,12.46
2023-05-16T00:25:19.105Z,12.44
2023-05-16T00:27:46.866Z,12.46
2023-05-16T00:30:15.413Z,12.44
2023-05-16T00:32:44.876Z,12.37
2023-05-16T00:35:12.709Z,12.34
2023-05-16T00:37:40.373Z,12.47
2023-05-16T00:40:08.668Z,12.41
2023-05-16T00:42:36.531Z,12.37
2023-05-16T00:45:05.085Z,12.31
2023-05-16T00:47:32.986Z,12.48
2023-05-16T00:50:00.624Z,12.50
2023-05-16T00:52:28.841Z,12.52
2023-05-16T00:54:56.581Z,12.51
2023-05-16T00:57:24.016Z,12.42
2023-05-16T00:59:51.837Z,12.39
2023-05-16T01:02:20.427Z,12.48
2023-05-16T01:04:48.635Z,12.43
2023-05-16T01:07:17.244Z,12.49
2023-05-16T01:09:44.887Z,12.47
2023-05-16T01:12:24.167Z,12.45
2023-05-16T01:15:00.032Z,12.45
2023-05-16T01:17:29.218Z,12.51
2023-05-16T01:20:18.866Z,12.53
2023-05-16T01:22:48.879Z,12.53
2023-05-16T01:25:38.790Z,12.48
2023-05-16T01:28:07.764Z,12.62
2023-05-16T01:30:37.916Z,12.55
2023-05-16T01:33:05.340Z,12.67
2023-05-16T01:35:33.516Z,12.54
2023-05-16T01:38:13.093Z,12.55
2023-05-16T01:40:58.706Z,12.50
2023-05-16T01:44:03.462Z,12.55
2023-05-16T01:46:37.553Z,12.44
2023-05-16T01:49:19.048Z,12.36
2023-05-16T01:52:03.882Z,12.44
2023-05-16T01:54:33.496Z,12.35
2023-05-16T01:57:04.833Z,12.31
2023-05-16T01:59:33.643Z,12.27
2023-05-16T02:02:01.144Z,12.28
2023-05-16T02:04:28.891Z,12.22
2023-05-16T02:06:57.259Z,12.22
2023-05-16T02:09:26.206Z,12.09
2023-05-16T02:11:54.092Z,12.19
2023-05-16T02:14:21.506Z,12.13
2023-05-16T02:16:49.315Z,12.15
2023-05-16T02:19:17.568Z,12.13
2023-05-16T02:21:45.126Z,12.15
2023-05-16T02:24:13.062Z,12.16
2023-05-16T02:26:40.544Z,12.12
2023-05-16T02:29:08.007Z,12.12
2023-05-16T02:31:36.028Z,12.15
2023-05-16T02:34:03.767Z,12.12
2023-05-16T02:36:32.174Z,12.13
2023-05-16T02:39:00.145Z,12.06
2023-05-16T02:41:27.676Z,12.08
2023-05-16T02:43:55.058Z,12.19
2023-05-16T02:46:23.804Z,12.15
2023-05-16T02:48:52.099Z,12.06
2023-05-16T02:51:21.877Z,12.15
2023-05-16T02:53:49.704Z,12.11
2023-05-16T02:56:17.261Z,12.19
2023-05-16T02:58:48.597Z,12.19
2023-05-16T03:01:17.158Z,12.18
2023-05-16T03:03:44.869Z,12.21
2023-05-16T03:06:12.834Z,12.07
2023-05-16T03:08:40.945Z,12.09
2023-05-16T03:11:08.503Z,12.09
2023-05-16T03:13:35.815Z,12.12
2023-05-16T03:16:05.958Z,12.02
2023-05-16T03:18:33.452Z,12.00
2023-05-16T03:21:01.667Z,11.93
2023-05-16T03:23:29.398Z,11.94
2023-05-16T03:25:57.703Z,11.96
2023-05-16T03:28:25.645Z,12.00
2023-05-16T03:30:55.456Z,12.04
2023-05-16T03:33:23.865Z,12.04
2023-05-16T03:35:52.310Z,12.10
2023-05-16T03:38:19.937Z,11.99
2023-05-16T03:40:48.628Z,12.03
2023-05-16T03:43:16.154Z,12.15
2023-05-16T03:45:44.477Z,12.09
2023-05-16T03:48:11.886Z,12.03
2023-05-16T03:50:41.194Z,12.08
2023-05-16T03:53:10.312Z,12.09
2023-05-16T03:55:38.081Z,12.04
2023-05-16T03:58:05.450Z,12.10
2023-05-16T04:00:34.712Z,12.07
2023-05-16T04:03:02.705Z,12.06
2023-05-16T04:05:30.743Z,12.10
2023-05-16T04:07:58.302Z,12.12
2023-05-16T04:10:25.951Z,12.13
2023-05-16T04:12:53.314Z,12.21
2023-05-16T04:15:21.182Z,12.21
2023-05-16T04:17:49.105Z,12.11
2023-05-16T04:20:17.135Z,12.04
2023-05-16T04:22:44.658Z,12.07
2023-05-16T04:25:12.688Z,12.11
2023-05-16T04:27:40.146Z,12.08
2023-05-16T04:30:08.115Z,12.11
2023-05-16T04:32:36.917Z,12.14
2023-05-16T04:35:04.378Z,12.13
2023-05-16T04:37:32.856Z,12.18
2023-05-16T04:40:00.651Z,12.21
2023-05-16T04:42:28.110Z,12.29
2023-05-16T04:44:56.642Z,12.19
2023-05-16T04:47:24.506Z,12.21
2023-05-16T04:49:52.766Z,12.19
2023-05-16T04:52:20.938Z,12.19
2023-05-16T04:54:51.317Z,12.20
2023-05-16T04:57:18.934Z,12.29
2023-05-16T04:59:46.368Z,12.30
2023-05-16T05:02:14.054Z,12.26
2023-05-16T05:04:41.850Z,12.38
2023-05-16T05:07:09.255Z,12.30
2023-05-16T05:09:36.962Z,12.24
2023-05-16T05:12:04.720Z,12.25
2023-05-16T05:14:32.180Z,12.22
2023-05-16T05:16:59.831Z,12.35
2023-05-16T05:19:27.271Z,12.29
2023-05-16T05:21:55.771Z,12.39
2023-05-16T05:24:23.428Z,12.35
2023-05-16T05:26:50.935Z,12.27
2023-05-16T05:29:18.392Z,12.34
2023-05-16T05:31:46.087Z,12.29
2023-05-16T05:34:13.604Z,12.44
2023-05-16T05:36:41.194Z,12.52
2023-05-16T05:39:08.880Z,12.51
2023-05-16T05:41:36.707Z,12.43
2023-05-16T05:44:04.234Z,12.39
2023-05-16T05:46:33.893Z,12.45
2023-05-16T05:49:02.380Z,12.46
2023-05-16T05:51:30.053Z,12.48
2023-05-16T05:53:58.179Z,12.51
2023-05-16T05:56:25.594Z,12.44
2023-05-16T05:58:53.037Z,12.55
2023-05-16T06:01:24.680Z,12.49
2023-05-16T06:03:52.554Z,12.50
2023-05-16T06:06:20.166Z,12.49
2023-05-16T06:08:47.457Z,12.54
2023-05-16T06:11:16.277Z,12.44
2023-05-16T06:13:43.581Z,12.48
2023-05-16T06:16:11.903Z,12.47
2023-05-16T06:18:40.311Z,12.43
2023-05-16T06:21:07.963Z,12.43
2023-05-16T06:23:36.220Z,12.50
2023-05-16T06:26:04.655Z,12.54
2023-05-16T06:28:32.161Z,12.56
2023-05-16T06:30:59.622Z,12.65
2023-05-16T06:33:27.335Z,12.69
2023-05-16T06:35:54.819Z,12.76
2023-05-16T06:38:22.304Z,12.72
2023-05-16T06:40:50.228Z,12.72
2023-05-16T06:43:18.104Z,12.70
2023-05-16T06:45:46.918Z,12.71
2023-05-16T06:48:15.831Z,12.76
2023-05-16T06:50:43.913Z,12.79
2023-05-16T06:53:12.259Z,12.80
2023-05-16T06:55:40.001Z,12.77
2023-05-16T06:58:07.370Z,12.85
2023-05-16T07:00:34.825Z,12.88
2023-05-16T07:03:04.158Z,12.86
2023-05-16T07:05:31.866Z,12.83
2023-05-16T07:07:59.273Z,12.89
2023-05-16T07:10:27.583Z,12.93
2023-05-16T07:12:56.152Z,12.93
2023-05-16T07:15:23.658Z,13.04
2023-05-16T07:17:51.462Z,13.11
2023-05-16T07:20:19.052Z,13.08
2023-05-16T07:22:47.208Z,13.10
2023-05-16T07:25:16.416Z,13.18
2023-05-16T07:27:45.318Z,13.21
2023-05-16T07:30:13.583Z,13.28
2023-05-16T07:32:41.942Z,13.32
2023-05-16T07:35:10.033Z,13.41
2023-05-16T07:37:37.391Z,13.48
2023-05-16T07:40:05.818Z,13.60
2023-05-16T07:42:33.323Z,13.66
2023-05-16T07:45:01.060Z,13.77
2023-05-16T07:47:29.438Z,13.82
2023-05-16T07:49:57.515Z,13.87
2023-05-16T07:52:27.867Z,13.91
2023-05-16T07:54:56.788Z,13.97
2023-05-16T07:57:25.299Z,14.00
2023-05-16T07:59:53.618Z,14.02
2023-05-16T08:02:31.384Z,14.03
2023-05-16T08:04:59.907Z,14.15
2023-05-16T08:07:27.489Z,14.21
2023-05-16T08:09:56.097Z,14.36
2023-05-16T08:12:24.875Z,14.57
2023-05-16T08:14:52.607Z,14.58
2023-05-16T08:17:21.198Z,14.66
2023-05-16T08:19:50.277Z,14.65
2023-05-16T08:22:18.471Z,14.72
2023-05-16T08:24:46.480Z,14.75
2023-05-16T08:27:14.149Z,14.76
2023-05-16T08:29:50.693Z,14.85
2023-05-16T08:32:18.491Z,14.82
2023-05-16T08:34:46.879Z,14.86
2023-05-16T08:37:15.955Z,14.73
2023-05-16T08:39:45.825Z,14.83
2023-05-16T08:42:19.560Z,14.89
2023-05-16T08:44:47.624Z,15.06
2023-05-16T08:47:25.165Z,15.13
2023-05-16T08:49:57.908Z,15.14
2023-05-16T08:52:31.493Z,15.11
2023-05-16T08:55:11.443Z,15.40
2023-05-16T08:57:41.724Z,15.71
2023-05-16T09:00:13.544Z,15.81
2023-05-16T09:02:47.456Z,15.97
2023-05-16T09:05:19.725Z,16.02
2023-05-16T09:07:52.061Z,15.94
2023-05-16T09:10:20.217Z,15.56
2023-05-16T09:12:48.476Z,15.78
2023-05-16T09:15:18.887Z,15.60
2023-05-16T09:17:47.481Z,15.49
2023-05-16T09:20:25.177Z,15.41
2023-05-16T09:22:58.756Z,15.49
2023-05-16T09:25:31.092Z,15.56
2023-05-16T09:28:03.676Z,15.55
2023-05-16T09:30:37.737Z,15.67
2023-05-16T09:33:08.392Z,15.54
2023-05-16T09:35:45.078Z,15.48
2023-05-16T09:38:16.856Z,15.59
2023-05-16T09:40:45.576Z,15.43
2023-05-16T09:43:17.394Z,15.57
2023-05-16T09:45:49.424Z,15.69
2023-05-16T09:48:18.371Z,15.73
2023-05-16T09:50:54.598Z,15.80
2023-05-16T09:53:27.911Z,15.91
2023-05-16T09:56:13.012Z,15.87
2023-05-16T09:58:47.823Z,15.99
2023-05-16T10:01:15.713Z,16.07
2023-05-16T10:03:43.997Z,16.10
2023-05-16T10:06:12.830Z,16.23
2023-05-16T10:08:43.267Z,16.38
2023-05-16T10:11:12.033Z,16.58
2023-05-16T10:13:40.221Z,16.64
2023-05-16T10:16:11.495Z,16.52
2023-05-16T10:18:40.963Z,16.47
2023-05-16T10:21:12.131Z,16.35
2023-05-16T10:23:43.452Z,16.39
2023-05-16T10:26:14.371Z,16.37
2023-05-16T10:28:42.703Z,16.33
2023-05-16T10:31:11.864Z,16.39
2023-05-16T10:33:40.155Z,16.41
2023-05-16T10:36:12.400Z,16.66
2023-05-16T10:38:41.786Z,16.69
2023-05-16T10:41:10.553Z,16.85
2023-05-16T10:43:37.998Z,16.83
2023-05-16T10:46:09.976Z,17.30
2023-05-16T10:48:39.858Z,17.49
2023-05-16T10:51:22.929Z,17.38
2023-05-16T10:53:55.017Z,17.37
2023-05-16T10:56:27.353Z,17.28
2023-05-16T10:58:56.326Z,17.75
2023-05-16T11:01:30.358Z,17.79
2023-05-16T11:04:00.724Z,18.12
2023-05-16T11:06:32.775Z,17.98
2023-05-16T11:09:06.878Z,17.85
2023-05-16T11:11:47.994Z,18.01
2023-05-16T11:14:26.149Z,18.06
2023-05-16T11:17:01.707Z,17.68
2023-05-16T11:19:39.530Z,17.69
2023-05-16T11:22:15.316Z,17.80
2023-05-16T11:24:54.990Z,17.84
2023-05-16T11:27:33.008Z,17.93
2023-05-16T11:30:22.107Z,18.30
2023-05-16T11:32:50.924Z,18.32
2023-05-16T11:35:20.622Z,18.31
2023-05-16T11:37:52.109Z,18.42
2023-05-16T11:40:22.670Z,18.20
2023-05-16T11:42:50.193Z,18.23
2023-05-16T11:45:20.038Z,18.28
2023-05-16T11:47:49.277Z,18.26
2023-05-16T11:50:17.947Z,18.33
2023-05-16T11:52:47.906Z,18.29
2023-05-16T11:55:28.320Z,18.23
2023-05-16T11:58:08.231Z,17.78
2023-05-16T12:00:36.711Z,18.25
2023-05-16T12:03:06.146Z,18.54
2023-05-16T12:05:35.363Z,18.47
2023-05-16T12:08:05.162Z,18.99
2023-05-16T12:10:35.924Z,18.83
2023-05-16T12:13:04.347Z,18.55
2023-05-16T12:15:32.272Z,18.82
2023-05-16T12:17:59.941Z,19.24
2023-05-16T12:20:27.813Z,19.27
2023-05-16T12:22:58.156Z,19.31
2023-05-16T12:25:31.153Z,19.77
2023-05-16T12:28:00.708Z,19.26
2023-05-16T12:30:30.076Z,19.29
2023-05-16T12:33:05.843Z,19.31
2023-05-16T12:35:39.080Z,19.32
2023-05-16T12:38:11.856Z,19.16
2023-05-16T12:40:41.580Z,19.03
2023-05-16T12:43:20.018Z,19.36
2023-05-16T12:45:52.990Z,19.16
2023-05-16T12:48:21.882Z,19.11
2023-05-16T12:50:50.699Z,19.22
2023-05-16T12:53:19.134Z,19.03
2023-05-16T12:55:47.014Z,18.74
2023-05-16T12:58:14.741Z,18.82
2023-05-16T13:00:42.121Z,18.82
2023-05-16T13:03:09.749Z,18.66
2023-05-16T13:05:37.518Z,18.48
2023-05-16T13:08:05.672Z,18.44
2023-05-16T13:10:33.061Z,18.39
2023-05-16T13:13:00.881Z,18.43
2023-05-16T13:15:28.758Z,18.20
2023-05-16T13:17:56.576Z,18.17
2023-05-16T13:20:24.921Z,17.94
2023-05-16T13:22:52.398Z,17.69
2023-05-16T13:25:19.864Z,17.62
2023-05-16T13:27:49.546Z,17.47
2023-05-16T13:30:19.122Z,17.36
2023-05-16T13:32:46.543Z,17.42
2023-05-16T13:35:14.368Z,17.28
2023-05-16T13:37:42.057Z,17.42
2023-05-16T13:40:10.699Z,17.45
2023-05-16T13:42:38.988Z,17.46
2023-05-16T13:45:07.363Z,17.38
2023-05-16T13:47:34.851Z,17.33
2023-05-16T13:50:06.371Z,17.23
2023-05-16T13:52:35.031Z,17.18
2023-05-16T13:55:04.869Z,17.18
2023-05-16T13:57:33.303Z,17.04
2023-05-16T14:02:40.876Z,17.07
2023-05-16T14:05:09.772Z,17.00
2023-05-16T14:07:37.324Z,17.08
2023-05-16T14:10:07.118Z,17.06
2023-05-16T14:12:34.949Z,17.16
2023-05-16T14:15:03.433Z,17.22
2023-05-16T14:17:31.583Z,17.26
2023-05-16T14:19:59.287Z,17.24
2023-05-16T14:22:26.939Z,17.36
2023-05-16T14:24:54.330Z,17.26
2023-05-16T14:27:22.074Z,17.33
2023-05-16T14:29:49.427Z,17.44
2023-05-16T14:32:17.062Z,17.46
2023-05-16T14:34:44.982Z,17.48
2023-05-16T14:37:13.438Z,17.44
2023-05-16T14:39:40.956Z,17.46
2023-05-16T14:42:08.927Z,17.49
2023-05-16T14:44:36.582Z,17.45
2023-05-16T14:47:04.650Z,17.52
2023-05-16T14:49:32.567Z,17.57
2023-05-16T14:51:59.963Z,17.70
2023-05-16T14:54:27.455Z,17.88
2023-05-16T14:56:55.899Z,17.96
2023-05-16T14:59:26.274Z,17.89
2023-05-16T15:01:53.749Z,17.96
2023-05-16T15:04:21.601Z,18.03
2023-05-16T15:06:48.980Z,18.12
2023-05-16T15:09:17.771Z,18.07
2023-05-16T15:11:46.193Z,18.35
2023-05-16T15:14:13.631Z,18.31
2023-05-16T15:16:41.185Z,18.28
2023-05-16T15:19:09.021Z,18.17
2023-05-16T15:21:36.471Z,18.02
2023-05-16T15:24:04.088Z,18.01
2023-05-16T15:26:32.897Z,17.67
2023-05-16T15:29:00.272Z,17.69
2023-05-16T15:31:27.818Z,17.72
2023-05-16T15:33:56.112Z,17.67
2023-05-16T15:36:23.555Z,17.45
2023-05-16T15:38:51.354Z,17.52
2023-05-16T15:41:32.116Z,17.53
2023-05-16T15:44:06.462Z,17.35
2023-05-16T15:46:34.376Z,17.27
2023-05-16T15:49:01.909Z,17.37
2023-05-16T15:51:29.218Z,17.39
2023-05-16T15:53:57.087Z,17.28
2023-05-16T15:56:24.447Z,17.06
2023-05-16T15:58:51.903Z,16.99
2023-05-16T16:01:19.748Z,17.04
2023-05-16T16:03:47.930Z,16.66
2023-05-16T16:06:15.349Z,16.64
2023-05-16T16:08:42.751Z,16.67
2023-05-16T16:11:10.774Z,16.48
2023-05-16T16:13:38.570Z,16.64
2023-05-16T16:16:09.720Z,16.42
2023-05-16T16:18:37.487Z,16.35
2023-05-16T16:21:04.958Z,16.30
2023-05-16T16:23:32.342Z,16.31
2023-05-16T16:26:00.809Z,16.38
2023-05-16T16:28:28.181Z,16.54
2023-05-16T16:30:55.589Z,16.57
2023-05-16T16:33:23.390Z,16.53
2023-05-16T16:35:52.247Z,16.60
2023-05-16T16:38:19.670Z,16.50
2023-05-16T16:40:47.540Z,16.49
2023-05-16T16:43:15.575Z,16.42
2023-05-16T16:45:42.905Z,16.34
2023-05-16T16:48:11.797Z,16.33
2023-05-16T16:50:39.335Z,16.22
2023-05-16T16:53:06.751Z,16.26
2023-05-16T16:55:34.596Z,16.08
2023-05-16T16:58:02.315Z,15.96
2023-05-16T17:00:29.902Z,16.03
2023-05-16T17:02:58.915Z,16.08
2023-05-16T17:05:26.750Z,16.08
2023-05-16T17:07:54.373Z,15.94
2023-05-16T17:10:22.124Z,16.10
2023-05-16T17:12:50.096Z,15.93
2023-05-16T17:15:17.898Z,15.90
2023-05-16T17:17:46.219Z,15.79
2023-05-16T17:20:13.684Z,15.78
2023-05-16T17:22:41.180Z,15.84
2023-05-16T17:25:10.009Z,15.93
2023-05-16T17:27:37.453Z,15.81
2023-05-16T17:30:05.256Z,15.62
2023-05-16T17:32:33.108Z,15.45
2023-05-16T17:35:04.034Z,15.50
2023-05-16T17:37:33.328Z,15.25
2023-05-16T17:40:01.151Z,15.45
2023-05-16T17:42:28.550Z,15.20
2023-05-16T17:44:55.854Z,15.35
2023-05-16T17:47:24.667Z,15.32
2023-05-16T17:49:52.196Z,15.29
2023-05-16T17:52:20.341Z,15.27
2023-05-16T17:54:48.295Z,15.25
2023-05-16T17:57:15.677Z,15.24
2023-05-16T17:59:43.165Z,15.05
2023-05-16T18:02:15.314Z,15.05
2023-05-16T18:04:43.328Z,15.16
2023-05-16T18:07:10.878Z,15.13
2023-05-16T18:09:38.748Z,15.01
2023-05-16T18:12:07.265Z,14.96
2023-05-16T18:14:35.553Z,15.13
2023-05-16T18:17:03.060Z,15.12
2023-05-16T18:19:31.249Z,15.10
2023-05-16T18:22:00.208Z,14.83
2023-05-16T18:24:27.709Z,14.89
2023-05-16T18:26:55.396Z,14.82
2023-05-16T18:29:23.745Z,14.81
2023-05-16T18:31:52.590Z,14.85
2023-05-16T18:34:22.427Z,14.73
2023-05-16T18:36:50.878Z,14.71
2023-05-16T18:39:20.898Z,14.76
2023-05-16T18:41:48.872Z,14.69
2023-05-16T18:44:20.593Z,14.73
2023-05-16T18:46:48.066Z,14.71
2023-05-16T18:49:16.197Z,14.68
2023-05-16T18:51:44.476Z,14.65
2023-05-16T18:54:11.998Z,14.68
2023-05-16T18:56:39.874Z,14.78
2023-05-16T18:59:07.324Z,14.73
2023-05-16T19:01:34.775Z,14.62
2023-05-16T19:04:02.622Z,14.72
2023-05-16T19:06:30.267Z,14.66
2023-05-16T19:08:57.564Z,14.60
2023-05-16T19:11:25.333Z,14.64
2023-05-16T19:13:52.779Z,14.58
2023-05-16T19:16:20.270Z,14.71
2023-05-16T19:18:50.491Z,14.47
2023-05-16T19:21:18.043Z,14.48
2023-05-16T19:23:46.350Z,14.64
2023-05-16T19:26:14.091Z,14.69
2023-05-16T19:28:42.780Z,14.58
2023-05-16T19:31:11.132Z,14.55
2023-05-16T19:33:39.073Z,14.61
2023-05-16T19:36:06.996Z,14.49
2023-05-16T19:38:34.438Z,14.47
2023-05-16T19:41:02.167Z,14.45
2023-05-16T19:43:30.042Z,14.51
2023-05-16T19:45:57.540Z,14.46
2023-05-16T19:48:25.646Z,14.44
2023-05-16T19:50:53.528Z,14.49
2023-05-16T19:53:20.956Z,14.42
2023-05-16T19:55:49.629Z,14.51
2023-05-16T19:58:17.075Z,14.42
2023-05-16T20:00:44.513Z,14.50
2023-05-16T20:03:12.249Z,14.49
2023-05-16T20:05:39.783Z,14.47
2023-05-16T20:08:07.286Z,14.61
2023-05-16T20:10:35.517Z,14.77
2023-05-16T20:13:02.933Z,14.78
2023-05-16T20:15:30.794Z,14.90
2023-05-16T20:17:58.676Z,14.98
2023-05-16T20:20:27.062Z,14.92
2023-05-16T20:22:54.506Z,14.84
2023-05-16T20:25:22.224Z,14.77
2023-05-16T20:27:49.770Z,14.68
2023-05-16T20:30:17.087Z,14.51
2023-05-16T20:32:44.969Z,14.45
2023-05-16T20:35:12.614Z,14.38
2023-05-16T20:37:41.442Z,14.47
2023-05-16T20:40:09.881Z,14.51
2023-05-16T20:42:37.318Z,14.55
2023-05-16T20:45:05.056Z,14.51
2023-05-16T20:47:33.042Z,14.34
2023-05-16T20:50:00.438Z,14.42
2023-05-16T20:52:28.194Z,14.37
2023-05-16T20:54:58.320Z,14.45
2023-05-16T20:57:25.796Z,14.20
2023-05-16T20:59:53.379Z,14.18
2023-05-16T21:02:21.193Z,14.16
2023-05-16T21:04:48.641Z,14.01
2023-05-16T21:07:16.241Z,14.00
2023-05-16T21:09:44.243Z,14.00
2023-05-16T21:12:11.804Z,14.03
2023-05-16T21:14:39.197Z,13.99
2023-05-16T21:17:06.852Z,13.90
2023-05-16T21:19:35.619Z,13.77
2023-05-16T21:22:04.301Z,13.78
2023-05-16T21:24:35.808Z,13.81
2023-05-16T21:27:04.207Z,13.82
2023-05-16T21:29:32.194Z,13.83
2023-05-16T21:31:59.558Z,13.86
2023-05-16T21:34:27.007Z,13.91
2023-05-16T21:36:54.738Z,13.81
2023-05-16T21:39:22.030Z,14.00
2023-05-16T21:41:49.363Z,13.86
2023-05-16T21:44:18.652Z,14.06
2023-05-16T21:46:46.023Z,13.99
2023-05-16T21:49:13.348Z,13.81
2023-05-16T21:51:41.289Z,13.78
2023-05-16T21:54:08.677Z,13.70
2023-05-16T21:56:36.097Z,13.66
2023-05-16T21:59:03.938Z,13.70
2023-05-16T22:01:31.494Z,13.67
2023-05-16T22:03:59.291Z,13.57
2023-05-16T22:06:26.853Z,13.52
2023-05-16T22:08:55.196Z,13.61
2023-05-16T22:11:22.885Z,13.52
2023-05-16T22:13:50.812Z,13.42
2023-05-16T22:16:18.868Z,13.54
2023-05-16T22:18:46.751Z,13.63
2023-05-16T22:21:16.339Z,13.64
2023-05-16T22:23:43.735Z,13.57
2023-05-16T22:26:11.538Z,13.61
2023-05-16T22:28:38.810Z,13.62
2023-05-16T22:31:06.158Z,13.67
2023-05-16T22:33:34.099Z,13.60
2023-05-16T22:36:03.393Z,13.64
2023-05-16T22:38:31.971Z,13.53
2023-05-16T22:40:59.680Z,13.46
2023-05-16T22:43:27.023Z,13.25
2023-05-16T22:45:54.543Z,13.36
2023-05-16T22:48:22.250Z,13.33
2023-05-16T22:50:49.779Z,13.41
2023-05-16T22:53:17.179Z,13.54
2023-05-16T22:55:44.958Z,13.95
2023-05-16T22:58:12.639Z,13.88
2023-05-16T23:00:40.091Z,13.48
2023-05-16T23:03:08.000Z,13.61
2023-05-16T23:05:36.000Z,13.59
2023-05-16T23:08:04.544Z,13.80
2023-05-16T23:10:32.648Z,13.83
2023-05-16T23:13:00.075Z,13.78
2023-05-16T23:15:27.630Z,13.74
2023-05-16T23:17:56.520Z,13.83
2023-05-16T23:20:24.647Z,13.87
2023-05-16T23:22:52.025Z,13.86
2023-05-16T23:25:19.869Z,13.96
2023-05-16T23:27:47.264Z,13.62
2023-05-16T23:30:15.413Z,13.62
2023-05-16T23:32:43.247Z,13.72
2023-05-16T23:35:10.879Z,13.79
2023-05-16T23:37:39.510Z,13.45
2023-05-16T23:40:07.957Z,13.66
2023-05-16T23:42:37.041Z,13.71
2023-05-16T23:45:05.043Z,13.66
2023-05-16T23:47:32.771Z,13.59
2023-05-16T23:50:00.267Z,13.48
2023-05-16T23:52:27.699Z,13.61
2023-05-16T23:54:55.453Z,13.59
2023-05-16T23:57:22.812Z,13.56
2023-05-16T23:59:50.109Z,13.62
